sensor_id;sensor_type;location;lat;lon;timestamp;P1;durP1;ratioP1;P2;durP2;ratioP2
40729;SDS011;26418;50.070;8.436;2023-07-31T00:00:38;4.60;;;1.60;;
40729;SDS011;26418;50.070;8.436;2023-07-31T00:03:03;3.35;;;1.45;;
40729;SDS011;26418;50.070;8.436;2023-07-31T00:05:29;3.65;;;1.45;;
40729;SDS011;26418;50.070;8.436;2023-07-31T00:07:54;4.47;;;1.30;;
40729;SDS011;26418;50.070;8.436;2023-07-31T00:10:20;3.13;;;1.33;;
40729;SDS011;26418;50.070;8.436;2023-07-31T00:12:46;4.63;;;1.73;;
40729;SDS011;26418;50.070;8.436;2023-07-31T00:15:12;5.50;;;1.20;;
40729;SDS011;26418;50.070;8.436;2023-07-31T00:17:39;10.10;;;2.10;;
40729;SDS011;26418;50.070;8.436;2023-07-31T00:20:05;4.95;;;1.80;;
40729;SDS011;26418;50.070;8.436;2023-07-31T00:22:31;4.00;;;1.73;;
40729;SDS011;26418;50.070;8.436;2023-07-31T00:24:56;3.80;;;1.88;;
40729;SDS011;26418;50.070;8.436;2023-07-31T00:27:22;2.65;;;1.73;;
40729;SDS011;26418;50.070;8.436;2023-07-31T00:29:48;4.95;;;1.70;;
40729;SDS011;26418;50.070;8.436;2023-07-31T00:32:14;6.63;;;1.48;;
40729;SDS011;26418;50.070;8.436;2023-07-31T00:34:39;6.30;;;1.90;;
40729;SDS011;26418;50.070;8.436;2023-07-31T00:37:05;8.95;;;1.90;;
40729;SDS011;26418;50.070;8.436;2023-07-31T00:39:31;4.10;;;1.92;;
40729;SDS011;26418;50.070;8.436;2023-07-31T00:41:56;3.80;;;1.98;;
40729;SDS011;26418;50.070;8.436;2023-07-31T00:44:22;3.88;;;2.10;;
40729;SDS011;26418;50.070;8.436;2023-07-31T00:46:48;5.63;;;2.00;;
40729;SDS011;26418;50.070;8.436;2023-07-31T00:49:14;5.28;;;1.98;;
40729;SDS011;26418;50.070;8.436;2023-07-31T00:51:40;5.63;;;2.13;;
40729;SDS011;26418;50.070;8.436;2023-07-31T00:54:06;11.05;;;2.13;;
40729;SDS011;26418;50.070;8.436;2023-07-31T00:56:31;3.97;;;1.92;;
40729;SDS011;26418;50.070;8.436;2023-07-31T00:58:57;6.10;;;1.85;;
40729;SDS011;26418;50.070;8.436;2023-07-31T01:01:23;4.15;;;1.92;;
40729;SDS011;26418;50.070;8.436;2023-07-31T01:03:49;6.55;;;1.95;;
40729;SDS011;26418;50.070;8.436;2023-07-31T01:06:25;2.88;;;1.50;;
40729;SDS011;26418;50.070;8.436;2023-07-31T01:12:15;5.70;;;1.73;;
40729;SDS011;26418;50.070;8.436;2023-07-31T01:14:52;4.00;;;1.98;;
40729;SDS011;26418;50.070;8.436;2023-07-31T01:17:40;5.70;;;1.90;;
40729;SDS011;26418;50.070;8.436;2023-07-31T01:20:28;3.40;;;1.98;;
40729;SDS011;26418;50.070;8.436;2023-07-31T01:28:37;2.78;;;1.65;;
40729;SDS011;26418;50.070;8.436;2023-07-31T01:31:04;4.22;;;1.50;;
40729;SDS011;26418;50.070;8.436;2023-07-31T01:33:33;5.18;;;1.73;;
40729;SDS011;26418;50.070;8.436;2023-07-31T01:36:00;3.95;;;2.03;;
40729;SDS011;26418;50.070;8.436;2023-07-31T01:38:26;7.93;;;1.88;;
40729;SDS011;26418;50.070;8.436;2023-07-31T01:40:52;2.75;;;1.65;;
40729;SDS011;26418;50.070;8.436;2023-07-31T01:43:18;3.72;;;1.73;;
40729;SDS011;26418;50.070;8.436;2023-07-31T01:45:44;4.35;;;1.73;;
40729;SDS011;26418;50.070;8.436;2023-07-31T01:48:10;5.57;;;2.00;;
40729;SDS011;26418;50.070;8.436;2023-07-31T01:50:35;3.60;;;1.60;;
40729;SDS011;26418;50.070;8.436;2023-07-31T01:53:01;2.28;;;1.63;;
40729;SDS011;26418;50.070;8.436;2023-07-31T01:55:26;3.03;;;1.63;;
40729;SDS011;26418;50.070;8.436;2023-07-31T01:57:52;5.05;;;1.75;;
40729;SDS011;26418;50.070;8.436;2023-07-31T02:00:18;4.50;;;1.52;;
40729;SDS011;26418;50.070;8.436;2023-07-31T02:02:43;5.32;;;1.92;;
40729;SDS011;26418;50.070;8.436;2023-07-31T02:05:09;4.28;;;1.98;;
40729;SDS011;26418;50.070;8.436;2023-07-31T02:07:34;9.30;;;2.15;;
40729;SDS011;26418;50.070;8.436;2023-07-31T02:10:00;8.38;;;2.22;;
40729;SDS011;26418;50.070;8.436;2023-07-31T02:12:26;6.63;;;2.47;;
40729;SDS011;26418;50.070;8.436;2023-07-31T02:14:51;3.97;;;2.25;;
40729;SDS011;26418;50.070;8.436;2023-07-31T02:17:17;4.68;;;1.92;;
40729;SDS011;26418;50.070;8.436;2023-07-31T02:19:42;6.28;;;2.25;;
40729;SDS011;26418;50.070;8.436;2023-07-31T02:22:08;4.25;;;2.10;;
40729;SDS011;26418;50.070;8.436;2023-07-31T02:24:34;8.80;;;2.33;;
40729;SDS011;26418;50.070;8.436;2023-07-31T02:26:59;6.22;;;2.50;;
40729;SDS011;26418;50.070;8.436;2023-07-31T02:29:25;8.55;;;2.55;;
40729;SDS011;26418;50.070;8.436;2023-07-31T02:31:50;5.22;;;2.50;;
40729;SDS011;26418;50.070;8.436;2023-07-31T02:34:16;4.85;;;2.35;;
40729;SDS011;26418;50.070;8.436;2023-07-31T02:36:41;3.53;;;1.95;;
40729;SDS011;26418;50.070;8.436;2023-07-31T02:39:06;7.60;;;2.17;;
40729;SDS011;26418;50.070;8.436;2023-07-31T02:41:32;5.47;;;2.80;;
40729;SDS011;26418;50.070;8.436;2023-07-31T02:43:58;3.83;;;2.45;;
40729;SDS011;26418;50.070;8.436;2023-07-31T02:46:23;6.40;;;2.40;;
40729;SDS011;26418;50.070;8.436;2023-07-31T02:48:50;2.83;;;2.30;;
40729;SDS011;26418;50.070;8.436;2023-07-31T02:51:16;7.57;;;2.88;;
40729;SDS011;26418;50.070;8.436;2023-07-31T02:53:42;10.13;;;3.03;;
40729;SDS011;26418;50.070;8.436;2023-07-31T02:56:07;6.88;;;2.88;;
40729;SDS011;26418;50.070;8.436;2023-07-31T02:58:33;8.88;;;2.42;;
40729;SDS011;26418;50.070;8.436;2023-07-31T03:00:58;5.85;;;2.60;;
40729;SDS011;26418;50.070;8.436;2023-07-31T03:03:24;3.20;;;1.95;;
40729;SDS011;26418;50.070;8.436;2023-07-31T03:05:50;5.80;;;2.65;;
40729;SDS011;26418;50.070;8.436;2023-07-31T03:08:15;5.88;;;2.80;;
40729;SDS011;26418;50.070;8.436;2023-07-31T03:10:41;5.72;;;2.53;;
40729;SDS011;26418;50.070;8.436;2023-07-31T03:13:06;5.10;;;2.70;;
40729;SDS011;26418;50.070;8.436;2023-07-31T03:15:32;4.15;;;2.20;;
40729;SDS011;26418;50.070;8.436;2023-07-31T03:17:58;6.95;;;2.33;;
40729;SDS011;26418;50.070;8.436;2023-07-31T03:20:23;4.05;;;2.13;;
40729;SDS011;26418;50.070;8.436;2023-07-31T03:22:49;5.88;;;2.47;;
40729;SDS011;26418;50.070;8.436;2023-07-31T03:25:14;7.57;;;2.67;;
40729;SDS011;26418;50.070;8.436;2023-07-31T03:27:40;5.57;;;2.50;;
40729;SDS011;26418;50.070;8.436;2023-07-31T03:30:06;7.45;;;2.30;;
40729;SDS011;26418;50.070;8.436;2023-07-31T03:32:32;5.20;;;2.63;;
40729;SDS011;26418;50.070;8.436;2023-07-31T03:34:57;6.22;;;2.75;;
40729;SDS011;26418;50.070;8.436;2023-07-31T03:37:23;5.28;;;2.60;;
40729;SDS011;26418;50.070;8.436;2023-07-31T03:39:49;4.93;;;2.10;;
40729;SDS011;26418;50.070;8.436;2023-07-31T03:42:14;5.05;;;2.67;;
40729;SDS011;26418;50.070;8.436;2023-07-31T03:44:49;6.88;;;2.80;;
40729;SDS011;26418;50.070;8.436;2023-07-31T03:47:15;9.98;;;2.90;;
40729;SDS011;26418;50.070;8.436;2023-07-31T03:49:40;4.50;;;2.40;;
40729;SDS011;26418;50.070;8.436;2023-07-31T03:52:06;6.07;;;2.85;;
40729;SDS011;26418;50.070;8.436;2023-07-31T03:54:32;7.28;;;2.70;;
40729;SDS011;26418;50.070;8.436;2023-07-31T03:56:57;5.05;;;2.65;;
40729;SDS011;26418;50.070;8.436;2023-07-31T03:59:23;6.70;;;2.38;;
40729;SDS011;26418;50.070;8.436;2023-07-31T04:01:49;7.13;;;2.55;;
40729;SDS011;26418;50.070;8.436;2023-07-31T04:04:14;2.63;;;2.05;;
40729;SDS011;26418;50.070;8.436;2023-07-31T04:06:39;4.95;;;2.78;;
40729;SDS011;26418;50.070;8.436;2023-07-31T04:09:05;5.13;;;2.30;;
40729;SDS011;26418;50.070;8.436;2023-07-31T04:11:31;4.05;;;2.40;;
40729;SDS011;26418;50.070;8.436;2023-07-31T04:13:56;6.80;;;2.55;;
40729;SDS011;26418;50.070;8.436;2023-07-31T04:16:22;5.18;;;2.38;;
40729;SDS011;26418;50.070;8.436;2023-07-31T04:18:47;4.47;;;2.33;;
40729;SDS011;26418;50.070;8.436;2023-07-31T04:21:13;4.57;;;2.15;;
40729;SDS011;26418;50.070;8.436;2023-07-31T04:23:38;4.53;;;2.75;;
40729;SDS011;26418;50.070;8.436;2023-07-31T04:26:04;4.82;;;2.40;;
40729;SDS011;26418;50.070;8.436;2023-07-31T04:28:29;7.03;;;2.60;;
40729;SDS011;26418;50.070;8.436;2023-07-31T04:30:56;7.40;;;2.88;;
40729;SDS011;26418;50.070;8.436;2023-07-31T04:33:22;6.43;;;2.75;;
40729;SDS011;26418;50.070;8.436;2023-07-31T04:35:57;3.72;;;2.22;;
40729;SDS011;26418;50.070;8.436;2023-07-31T04:38:22;5.32;;;2.67;;
40729;SDS011;26418;50.070;8.436;2023-07-31T04:40:48;6.50;;;2.47;;
40729;SDS011;26418;50.070;8.436;2023-07-31T04:43:13;5.28;;;2.63;;
40729;SDS011;26418;50.070;8.436;2023-07-31T04:45:39;5.60;;;2.55;;
40729;SDS011;26418;50.070;8.436;2023-07-31T04:48:07;5.65;;;2.60;;
40729;SDS011;26418;50.070;8.436;2023-07-31T04:50:32;9.80;;;3.08;;
40729;SDS011;26418;50.070;8.436;2023-07-31T04:52:58;4.40;;;2.55;;
40729;SDS011;26418;50.070;8.436;2023-07-31T04:55:23;6.63;;;2.90;;
40729;SDS011;26418;50.070;8.436;2023-07-31T04:57:49;6.82;;;2.58;;
40729;SDS011;26418;50.070;8.436;2023-07-31T05:00:14;6.57;;;2.13;;
40729;SDS011;26418;50.070;8.436;2023-07-31T05:02:40;9.77;;;3.10;;
40729;SDS011;26418;50.070;8.436;2023-07-31T05:05:06;4.93;;;2.47;;
40729;SDS011;26418;50.070;8.436;2023-07-31T05:07:32;6.38;;;2.95;;
40729;SDS011;26418;50.070;8.436;2023-07-31T05:09:57;5.13;;;2.30;;
40729;SDS011;26418;50.070;8.436;2023-07-31T05:12:23;4.85;;;2.72;;
40729;SDS011;26418;50.070;8.436;2023-07-31T05:14:48;5.15;;;2.28;;
40729;SDS011;26418;50.070;8.436;2023-07-31T05:17:14;7.63;;;2.70;;
40729;SDS011;26418;50.070;8.436;2023-07-31T05:19:39;12.30;;;3.05;;
40729;SDS011;26418;50.070;8.436;2023-07-31T05:22:05;3.72;;;2.22;;
40729;SDS011;26418;50.070;8.436;2023-07-31T05:24:31;5.57;;;2.60;;
40729;SDS011;26418;50.070;8.436;2023-07-31T05:26:56;6.07;;;2.47;;
40729;SDS011;26418;50.070;8.436;2023-07-31T05:29:22;3.97;;;2.42;;
40729;SDS011;26418;50.070;8.436;2023-07-31T05:31:47;7.80;;;2.88;;
40729;SDS011;26418;50.070;8.436;2023-07-31T05:34:13;5.50;;;2.72;;
40729;SDS011;26418;50.070;8.436;2023-07-31T05:36:38;6.82;;;2.80;;
40729;SDS011;26418;50.070;8.436;2023-07-31T05:39:04;7.43;;;2.95;;
40729;SDS011;26418;50.070;8.436;2023-07-31T05:41:33;4.97;;;2.53;;
40729;SDS011;26418;50.070;8.436;2023-07-31T05:43:59;7.40;;;2.47;;
40729;SDS011;26418;50.070;8.436;2023-07-31T05:46:25;5.72;;;2.47;;
40729;SDS011;26418;50.070;8.436;2023-07-31T05:48:50;6.25;;;2.55;;
40729;SDS011;26418;50.070;8.436;2023-07-31T05:51:16;5.78;;;2.83;;
40729;SDS011;26418;50.070;8.436;2023-07-31T05:53:41;6.07;;;2.55;;
40729;SDS011;26418;50.070;8.436;2023-07-31T05:56:07;7.13;;;2.90;;
40729;SDS011;26418;50.070;8.436;2023-07-31T05:58:33;6.55;;;2.88;;
40729;SDS011;26418;50.070;8.436;2023-07-31T06:00:58;7.10;;;2.20;;
40729;SDS011;26418;50.070;8.436;2023-07-31T06:03:24;7.75;;;3.13;;
40729;SDS011;26418;50.070;8.436;2023-07-31T06:05:49;6.97;;;2.85;;
40729;SDS011;26418;50.070;8.436;2023-07-31T06:08:15;6.25;;;2.30;;
40729;SDS011;26418;50.070;8.436;2023-07-31T06:10:40;4.65;;;2.92;;
40729;SDS011;26418;50.070;8.436;2023-07-31T06:13:06;3.42;;;2.30;;
40729;SDS011;26418;50.070;8.436;2023-07-31T06:15:31;6.47;;;2.45;;
40729;SDS011;26418;50.070;8.436;2023-07-31T06:17:57;7.57;;;2.80;;
40729;SDS011;26418;50.070;8.436;2023-07-31T06:20:22;10.25;;;2.78;;
40729;SDS011;26418;50.070;8.436;2023-07-31T06:22:48;7.05;;;2.97;;
40729;SDS011;26418;50.070;8.436;2023-07-31T06:25:13;6.28;;;2.80;;
40729;SDS011;26418;50.070;8.436;2023-07-31T06:27:39;11.93;;;2.95;;
40729;SDS011;26418;50.070;8.436;2023-07-31T06:30:05;10.60;;;2.65;;
40729;SDS011;26418;50.070;8.436;2023-07-31T06:32:31;10.35;;;2.63;;
40729;SDS011;26418;50.070;8.436;2023-07-31T06:34:57;6.25;;;2.97;;
40729;SDS011;26418;50.070;8.436;2023-07-31T06:37:22;5.07;;;2.38;;
40729;SDS011;26418;50.070;8.436;2023-07-31T06:39:48;4.63;;;2.42;;
40729;SDS011;26418;50.070;8.436;2023-07-31T06:42:13;6.45;;;2.78;;
40729;SDS011;26418;50.070;8.436;2023-07-31T06:44:39;6.97;;;2.97;;
40729;SDS011;26418;50.070;8.436;2023-07-31T06:47:05;5.13;;;2.47;;
40729;SDS011;26418;50.070;8.436;2023-07-31T06:49:30;5.97;;;2.65;;
40729;SDS011;26418;50.070;8.436;2023-07-31T06:51:56;7.43;;;2.85;;
40729;SDS011;26418;50.070;8.436;2023-07-31T06:54:21;5.88;;;2.53;;
40729;SDS011;26418;50.070;8.436;2023-07-31T06:56:47;6.80;;;2.63;;
40729;SDS011;26418;50.070;8.436;2023-07-31T06:59:12;10.13;;;2.63;;
40729;SDS011;26418;50.070;8.436;2023-07-31T07:01:38;8.60;;;2.60;;
40729;SDS011;26418;50.070;8.436;2023-07-31T07:04:03;7.28;;;2.97;;
40729;SDS011;26418;50.070;8.436;2023-07-31T07:06:29;7.63;;;2.60;;
40729;SDS011;26418;50.070;8.436;2023-07-31T07:08:55;7.63;;;3.35;;
40729;SDS011;26418;50.070;8.436;2023-07-31T07:11:20;6.20;;;2.35;;
40729;SDS011;26418;50.070;8.436;2023-07-31T07:13:46;6.38;;;2.88;;
40729;SDS011;26418;50.070;8.436;2023-07-31T07:16:11;8.48;;;2.78;;
40729;SDS011;26418;50.070;8.436;2023-07-31T07:18:37;4.47;;;2.35;;
40729;SDS011;26418;50.070;8.436;2023-07-31T07:21:20;6.63;;;3.00;;
40729;SDS011;26418;50.070;8.436;2023-07-31T07:24:11;9.80;;;2.80;;
40729;SDS011;26418;50.070;8.436;2023-07-31T07:26:40;6.75;;;2.90;;
40729;SDS011;26418;50.070;8.436;2023-07-31T07:29:05;7.28;;;3.08;;
40729;SDS011;26418;50.070;8.436;2023-07-31T07:31:33;9.68;;;3.03;;
40729;SDS011;26418;50.070;8.436;2023-07-31T07:33:58;9.68;;;2.65;;
40729;SDS011;26418;50.070;8.436;2023-07-31T07:36:24;10.60;;;3.35;;
40729;SDS011;26418;50.070;8.436;2023-07-31T07:38:49;8.10;;;3.03;;
40729;SDS011;26418;50.070;8.436;2023-07-31T07:41:15;4.30;;;2.47;;
40729;SDS011;26418;50.070;8.436;2023-07-31T07:43:40;5.75;;;2.92;;
40729;SDS011;26418;50.070;8.436;2023-07-31T07:46:06;10.93;;;2.78;;
40729;SDS011;26418;50.070;8.436;2023-07-31T07:48:31;10.00;;;3.22;;
40729;SDS011;26418;50.070;8.436;2023-07-31T07:50:57;6.40;;;3.05;;
40729;SDS011;26418;50.070;8.436;2023-07-31T07:53:22;5.68;;;2.90;;
40729;SDS011;26418;50.070;8.436;2023-07-31T07:55:48;6.55;;;2.58;;
40729;SDS011;26418;50.070;8.436;2023-07-31T07:58:14;7.90;;;3.20;;
40729;SDS011;26418;50.070;8.436;2023-07-31T08:00:39;5.68;;;2.55;;
40729;SDS011;26418;50.070;8.436;2023-07-31T08:03:05;7.70;;;3.35;;
40729;SDS011;26418;50.070;8.436;2023-07-31T08:05:31;8.27;;;3.63;;
40729;SDS011;26418;50.070;8.436;2023-07-31T08:07:59;8.18;;;2.63;;
40729;SDS011;26418;50.070;8.436;2023-07-31T08:10:24;7.05;;;2.53;;
40729;SDS011;26418;50.070;8.436;2023-07-31T08:12:50;6.75;;;3.47;;
40729;SDS011;26418;50.070;8.436;2023-07-31T08:15:16;8.65;;;3.00;;
40729;SDS011;26418;50.070;8.436;2023-07-31T08:17:41;9.60;;;3.08;;
40729;SDS011;26418;50.070;8.436;2023-07-31T08:20:07;12.60;;;2.78;;
40729;SDS011;26418;50.070;8.436;2023-07-31T08:22:33;7.43;;;3.20;;
40729;SDS011;26418;50.070;8.436;2023-07-31T08:24:58;5.65;;;2.88;;
40729;SDS011;26418;50.070;8.436;2023-07-31T08:27:24;6.88;;;3.28;;
40729;SDS011;26418;50.070;8.436;2023-07-31T08:29:51;4.80;;;2.60;;
40729;SDS011;26418;50.070;8.436;2023-07-31T08:32:17;8.38;;;3.17;;
40729;SDS011;26418;50.070;8.436;2023-07-31T08:34:43;6.13;;;2.50;;
40729;SDS011;26418;50.070;8.436;2023-07-31T08:37:11;7.80;;;2.90;;
40729;SDS011;26418;50.070;8.436;2023-07-31T08:39:37;4.28;;;2.33;;
40729;SDS011;26418;50.070;8.436;2023-07-31T08:42:07;5.05;;;2.95;;
40729;SDS011;26418;50.070;8.436;2023-07-31T08:44:33;7.05;;;3.00;;
40729;SDS011;26418;50.070;8.436;2023-07-31T08:47:00;7.28;;;2.60;;
40729;SDS011;26418;50.070;8.436;2023-07-31T08:49:26;8.85;;;2.80;;
40729;SDS011;26418;50.070;8.436;2023-07-31T08:51:52;9.73;;;3.08;;
40729;SDS011;26418;50.070;8.436;2023-07-31T08:54:20;4.85;;;2.60;;
40729;SDS011;26418;50.070;8.436;2023-07-31T08:56:45;6.60;;;2.90;;
40729;SDS011;26418;50.070;8.436;2023-07-31T08:59:11;6.55;;;2.42;;
40729;SDS011;26418;50.070;8.436;2023-07-31T09:01:43;8.38;;;2.63;;
40729;SDS011;26418;50.070;8.436;2023-07-31T09:04:13;5.80;;;2.65;;
40729;SDS011;26418;50.070;8.436;2023-07-31T09:06:40;5.43;;;2.83;;
40729;SDS011;26418;50.070;8.436;2023-07-31T09:09:07;4.43;;;2.50;;
40729;SDS011;26418;50.070;8.436;2023-07-31T09:11:34;7.88;;;2.85;;
40729;SDS011;26418;50.070;8.436;2023-07-31T09:13:59;6.97;;;2.72;;
40729;SDS011;26418;50.070;8.436;2023-07-31T09:16:33;8.25;;;3.20;;
40729;SDS011;26418;50.070;8.436;2023-07-31T09:18:59;7.38;;;2.58;;
40729;SDS011;26418;50.070;8.436;2023-07-31T09:21:27;9.35;;;2.47;;
40729;SDS011;26418;50.070;8.436;2023-07-31T09:23:53;6.78;;;2.40;;
40729;SDS011;26418;50.070;8.436;2023-07-31T09:26:32;14.32;;;2.65;;
40729;SDS011;26418;50.070;8.436;2023-07-31T09:29:00;9.98;;;2.55;;
40729;SDS011;26418;50.070;8.436;2023-07-31T09:31:46;11.40;;;3.30;;
40729;SDS011;26418;50.070;8.436;2023-07-31T09:34:12;5.28;;;2.60;;
40729;SDS011;26418;50.070;8.436;2023-07-31T09:36:45;6.85;;;2.67;;
40729;SDS011;26418;50.070;8.436;2023-07-31T09:39:12;15.20;;;3.08;;
40729;SDS011;26418;50.070;8.436;2023-07-31T09:41:41;8.07;;;2.63;;
40729;SDS011;26418;50.070;8.436;2023-07-31T09:44:08;5.13;;;2.72;;
40729;SDS011;26418;50.070;8.436;2023-07-31T09:46:35;4.30;;;2.50;;
40729;SDS011;26418;50.070;8.436;2023-07-31T09:49:03;6.07;;;2.92;;
40729;SDS011;26418;50.070;8.436;2023-07-31T09:51:32;4.03;;;2.30;;
40729;SDS011;26418;50.070;8.436;2023-07-31T09:54:03;6.50;;;2.40;;
40729;SDS011;26418;50.070;8.436;2023-07-31T09:56:29;4.72;;;2.50;;
40729;SDS011;26418;50.070;8.436;2023-07-31T09:58:57;6.60;;;2.88;;
40729;SDS011;26418;50.070;8.436;2023-07-31T10:01:23;7.50;;;3.40;;
40729;SDS011;26418;50.070;8.436;2023-07-31T10:03:48;5.38;;;2.92;;
40729;SDS011;26418;50.070;8.436;2023-07-31T10:06:15;5.65;;;3.13;;
40729;SDS011;26418;50.070;8.436;2023-07-31T10:08:43;6.22;;;2.63;;
40729;SDS011;26418;50.070;8.436;2023-07-31T10:11:13;7.28;;;2.70;;
40729;SDS011;26418;50.070;8.436;2023-07-31T10:13:39;7.10;;;2.78;;
40729;SDS011;26418;50.070;8.436;2023-07-31T10:16:06;5.00;;;2.70;;
40729;SDS011;26418;50.070;8.436;2023-07-31T10:18:32;17.15;;;3.58;;
40729;SDS011;26418;50.070;8.436;2023-07-31T10:20:59;8.48;;;3.50;;
40729;SDS011;26418;50.070;8.436;2023-07-31T10:23:25;6.07;;;2.38;;
40729;SDS011;26418;50.070;8.436;2023-07-31T10:25:51;4.32;;;2.70;;
40729;SDS011;26418;50.070;8.436;2023-07-31T10:28:20;7.93;;;3.15;;
40729;SDS011;26418;50.070;8.436;2023-07-31T10:30:46;9.70;;;2.70;;
40729;SDS011;26418;50.070;8.436;2023-07-31T10:33:14;6.15;;;2.65;;
40729;SDS011;26418;50.070;8.436;2023-07-31T10:35:40;7.72;;;3.40;;
40729;SDS011;26418;50.070;8.436;2023-07-31T10:38:12;5.45;;;2.47;;
40729;SDS011;26418;50.070;8.436;2023-07-31T10:40:38;6.97;;;3.13;;
40729;SDS011;26418;50.070;8.436;2023-07-31T10:43:04;8.40;;;3.17;;
40729;SDS011;26418;50.070;8.436;2023-07-31T10:48:06;5.30;;;3.20;;
40729;SDS011;26418;50.070;8.436;2023-07-31T10:50:38;7.18;;;3.22;;
40729;SDS011;26418;50.070;8.436;2023-07-31T10:53:10;7.07;;;3.03;;
40729;SDS011;26418;50.070;8.436;2023-07-31T10:55:49;6.13;;;3.17;;
40729;SDS011;26418;50.070;8.436;2023-07-31T10:58:19;7.80;;;2.90;;
40729;SDS011;26418;50.070;8.436;2023-07-31T11:00:46;6.22;;;3.08;;
40729;SDS011;26418;50.070;8.436;2023-07-31T11:05:47;8.05;;;3.40;;
40729;SDS011;26418;50.070;8.436;2023-07-31T11:10:48;6.60;;;2.63;;
40729;SDS011;26418;50.070;8.436;2023-07-31T11:13:15;11.70;;;3.38;;
40729;SDS011;26418;50.070;8.436;2023-07-31T11:15:41;5.30;;;3.13;;
40729;SDS011;26418;50.070;8.436;2023-07-31T11:18:06;3.97;;;3.00;;
40729;SDS011;26418;50.070;8.436;2023-07-31T11:20:33;7.80;;;3.45;;
40729;SDS011;26418;50.070;8.436;2023-07-31T11:23:00;7.00;;;2.80;;
40729;SDS011;26418;50.070;8.436;2023-07-31T11:25:28;5.93;;;2.78;;
40729;SDS011;26418;50.070;8.436;2023-07-31T11:28:04;6.38;;;2.90;;
40729;SDS011;26418;50.070;8.436;2023-07-31T11:30:29;4.97;;;2.33;;
40729;SDS011;26418;50.070;8.436;2023-07-31T11:32:55;5.05;;;2.72;;
40729;SDS011;26418;50.070;8.436;2023-07-31T11:35:21;5.93;;;3.05;;
40729;SDS011;26418;50.070;8.436;2023-07-31T11:37:47;5.65;;;3.17;;
40729;SDS011;26418;50.070;8.436;2023-07-31T11:40:14;6.43;;;2.95;;
40729;SDS011;26418;50.070;8.436;2023-07-31T11:42:40;6.53;;;3.00;;
40729;SDS011;26418;50.070;8.436;2023-07-31T11:45:06;7.70;;;2.72;;
40729;SDS011;26418;50.070;8.436;2023-07-31T11:47:33;4.70;;;2.95;;
40729;SDS011;26418;50.070;8.436;2023-07-31T11:50:00;6.15;;;3.20;;
40729;SDS011;26418;50.070;8.436;2023-07-31T11:52:28;11.93;;;3.63;;
40729;SDS011;26418;50.070;8.436;2023-07-31T11:54:57;5.03;;;3.03;;
40729;SDS011;26418;50.070;8.436;2023-07-31T11:57:24;8.40;;;3.25;;
40729;SDS011;26418;50.070;8.436;2023-07-31T11:59:51;5.93;;;2.92;;
40729;SDS011;26418;50.070;8.436;2023-07-31T12:02:17;8.70;;;3.95;;
40729;SDS011;26418;50.070;8.436;2023-07-31T12:04:43;6.15;;;2.80;;
40729;SDS011;26418;50.070;8.436;2023-07-31T12:07:10;7.85;;;3.03;;
40729;SDS011;26418;50.070;8.436;2023-07-31T12:09:38;4.00;;;2.35;;
40729;SDS011;26418;50.070;8.436;2023-07-31T12:12:07;6.45;;;3.58;;
40729;SDS011;26418;50.070;8.436;2023-07-31T12:14:34;5.45;;;2.97;;
40729;SDS011;26418;50.070;8.436;2023-07-31T12:17:01;4.72;;;2.70;;
40729;SDS011;26418;50.070;8.436;2023-07-31T12:19:29;6.35;;;3.10;;
40729;SDS011;26418;50.070;8.436;2023-07-31T12:21:55;7.82;;;3.13;;
40729;SDS011;26418;50.070;8.436;2023-07-31T12:24:21;6.25;;;3.28;;
40729;SDS011;26418;50.070;8.436;2023-07-31T12:26:47;6.35;;;3.45;;
40729;SDS011;26418;50.070;8.436;2023-07-31T12:29:14;6.47;;;3.25;;
40729;SDS011;26418;50.070;8.436;2023-07-31T12:31:40;13.02;;;3.40;;
40729;SDS011;26418;50.070;8.436;2023-07-31T12:34:17;7.57;;;3.28;;
40729;SDS011;26418;50.070;8.436;2023-07-31T12:36:43;8.48;;;3.58;;
40729;SDS011;26418;50.070;8.436;2023-07-31T12:39:09;7.82;;;3.00;;
40729;SDS011;26418;50.070;8.436;2023-07-31T12:41:35;4.22;;;2.60;;
40729;SDS011;26418;50.070;8.436;2023-07-31T12:44:02;4.82;;;2.63;;
40729;SDS011;26418;50.070;8.436;2023-07-31T12:46:28;4.72;;;2.42;;
40729;SDS011;26418;50.070;8.436;2023-07-31T12:48:54;6.75;;;3.10;;
40729;SDS011;26418;50.070;8.436;2023-07-31T12:51:19;6.50;;;2.67;;
40729;SDS011;26418;50.070;8.436;2023-07-31T12:53:46;7.20;;;3.10;;
40729;SDS011;26418;50.070;8.436;2023-07-31T12:56:11;7.38;;;2.97;;
40729;SDS011;26418;50.070;8.436;2023-07-31T12:58:37;6.72;;;2.95;;
40729;SDS011;26418;50.070;8.436;2023-07-31T13:01:02;4.63;;;3.13;;
40729;SDS011;26418;50.070;8.436;2023-07-31T13:03:28;5.53;;;3.05;;
40729;SDS011;26418;50.070;8.436;2023-07-31T13:05:54;9.50;;;3.28;;
40729;SDS011;26418;50.070;8.436;2023-07-31T13:08:20;10.82;;;3.30;;
40729;SDS011;26418;50.070;8.436;2023-07-31T13:10:45;10.43;;;3.55;;
40729;SDS011;26418;50.070;8.436;2023-07-31T13:13:11;6.05;;;3.20;;
40729;SDS011;26418;50.070;8.436;2023-07-31T13:15:37;6.47;;;3.15;;
40729;SDS011;26418;50.070;8.436;2023-07-31T13:18:02;7.50;;;2.85;;
40729;SDS011;26418;50.070;8.436;2023-07-31T13:20:28;8.05;;;2.50;;
40729;SDS011;26418;50.070;8.436;2023-07-31T13:22:53;8.27;;;2.92;;
40729;SDS011;26418;50.070;8.436;2023-07-31T13:25:19;3.92;;;2.17;;
40729;SDS011;26418;50.070;8.436;2023-07-31T13:27:45;5.07;;;2.17;;
40729;SDS011;26418;50.070;8.436;2023-07-31T13:30:10;6.22;;;2.78;;
40729;SDS011;26418;50.070;8.436;2023-07-31T13:32:36;14.95;;;2.85;;
40729;SDS011;26418;50.070;8.436;2023-07-31T13:35:04;4.88;;;2.42;;
40729;SDS011;26418;50.070;8.436;2023-07-31T13:37:33;9.52;;;2.40;;
40729;SDS011;26418;50.070;8.436;2023-07-31T13:39:59;4.40;;;2.78;;
40729;SDS011;26418;50.070;8.436;2023-07-31T13:42:25;4.10;;;2.13;;
40729;SDS011;26418;50.070;8.436;2023-07-31T13:44:51;6.72;;;2.72;;
40729;SDS011;26418;50.070;8.436;2023-07-31T13:47:17;3.47;;;2.30;;
40729;SDS011;26418;50.070;8.436;2023-07-31T13:49:42;4.32;;;2.92;;
40729;SDS011;26418;50.070;8.436;2023-07-31T13:52:08;6.43;;;2.90;;
40729;SDS011;26418;50.070;8.436;2023-07-31T13:54:34;5.65;;;2.83;;
40729;SDS011;26418;50.070;8.436;2023-07-31T13:56:59;4.68;;;2.63;;
40729;SDS011;26418;50.070;8.436;2023-07-31T13:59:25;5.63;;;2.75;;
40729;SDS011;26418;50.070;8.436;2023-07-31T14:01:51;5.82;;;2.65;;
40729;SDS011;26418;50.070;8.436;2023-07-31T14:04:17;7.32;;;2.70;;
40729;SDS011;26418;50.070;8.436;2023-07-31T14:06:43;5.15;;;2.75;;
40729;SDS011;26418;50.070;8.436;2023-07-31T14:09:09;7.45;;;2.65;;
40729;SDS011;26418;50.070;8.436;2023-07-31T14:11:34;5.07;;;2.85;;
40729;SDS011;26418;50.070;8.436;2023-07-31T14:14:00;8.07;;;3.10;;
40729;SDS011;26418;50.070;8.436;2023-07-31T14:16:27;7.00;;;3.00;;
40729;SDS011;26418;50.070;8.436;2023-07-31T14:18:53;6.70;;;3.35;;
40729;SDS011;26418;50.070;8.436;2023-07-31T14:21:19;10.63;;;4.63;;
40729;SDS011;26418;50.070;8.436;2023-07-31T14:23:45;12.30;;;3.88;;
40729;SDS011;26418;50.070;8.436;2023-07-31T14:26:11;6.85;;;3.45;;
40729;SDS011;26418;50.070;8.436;2023-07-31T14:28:37;10.88;;;3.60;;
40729;SDS011;26418;50.070;8.436;2023-07-31T14:31:03;9.35;;;3.72;;
40729;SDS011;26418;50.070;8.436;2023-07-31T14:33:29;10.25;;;3.47;;
40729;SDS011;26418;50.070;8.436;2023-07-31T14:35:54;6.53;;;2.80;;
40729;SDS011;26418;50.070;8.436;2023-07-31T14:38:20;8.52;;;3.17;;
40729;SDS011;26418;50.070;8.436;2023-07-31T14:40:46;6.45;;;3.03;;
40729;SDS011;26418;50.070;8.436;2023-07-31T14:43:11;6.53;;;2.75;;
40729;SDS011;26418;50.070;8.436;2023-07-31T14:45:37;9.48;;;3.38;;
40729;SDS011;26418;50.070;8.436;2023-07-31T14:48:02;6.47;;;3.42;;
40729;SDS011;26418;50.070;8.436;2023-07-31T14:50:28;8.40;;;3.53;;
40729;SDS011;26418;50.070;8.436;2023-07-31T14:52:53;6.13;;;3.28;;
40729;SDS011;26418;50.070;8.436;2023-07-31T14:55:19;6.20;;;2.88;;
40729;SDS011;26418;50.070;8.436;2023-07-31T14:57:45;7.43;;;3.08;;